Norse Mersey — IBEN — position and weather

sailwx.info

Track history (hours):
 
Tides and Currents Weather Stations Pressure Air Temp Water Temp Dewpoint Dewpoint Depression Visibility Wind Speed Wind Dir Waves Ship Positions

Norse Mersey

Operator: Norse Merchant Ferries

Last reported at 2015-Jul-07 13:18 UTC. Time now 2015-Jul-07 22:00 UTC.
Position N 40°24' E 014°44'.

Length 175 m; draft 5.3 m.

Type: Passenger vessel. MMSI: 247026000.

Date/timePositionNaut miles runAvg speedWind from/ knotsBaromVisibWave heightAir tempDewpointWater temp
2015-Jul-07 13:18N 40°24' E 014°44'10615.2
2015-Jul-07 06:21N 38°45' E 015°29'1215.2
2015-Jul-07 05:33N 38°33' E 015°35'1515.0
2015-Jul-07 04:34N 38°19' E 015°42'1313.4
2015-Jul-07 03:33N 38°07' E 015°36'1514.9
2015-Jul-07 02:33N 37°53' E 015°29'47 4.9
2015-Jul-06 17:03N 37°07' E 015°24'815.4
2015-Jul-06 16:33N 36°59' E 015°25'1515.4
2015-Jul-06 15:33N 36°45' E 015°17'2315.9
2015-Jul-06 14:08N 36°26' E 015°01'915.6
2015-Jul-06 13:33N 36°19' E 014°55'1515.3
2015-Jul-06 12:33N 36°06' E 014°44'1515.1
2015-Jul-06 11:33N 35°54' E 014°32'2 0.3
2015-Jul-06 05:32N 35°53' E 014°31'0 0.0
2015-Jul-06 01:29N 35°53' E 014°31'7 7.1
2015-Jul-06 00:33N 35°58' E 014°36'1414.1
2015-Jul-05 23:34N 36°09' E 014°46'1414.0
2015-Jul-05 22:34N 36°21' E 014°57'1413.6
2015-Jul-05 21:33N 36°32' E 015°05'1413.4
2015-Jul-05 20:32N 36°43' E 015°16'1414.3
2015-Jul-05 19:33N 36°56' E 015°24'1413.8
2015-Jul-05 18:33N 37°09' E 015°23'1313.4
2015-Jul-05 17:33N 37°21' E 015°15'25 2.3
2015-Jul-05 06:33N 37°46' E 015°21'1515.1
2015-Jul-05 05:33N 37°60' E 015°30'1515.0
2015-Jul-05 04:34N 38°14' E 015°37'1313.1
2015-Jul-05 03:33N 38°27' E 015°36'1414.4
2015-Jul-05 02:33N 38°41' E 015°30'1614.9
2015-Jul-05 01:29N 38°56' E 015°23'9114.6
2015-Jul-04 19:17N 40°21' E 014°45'9 0.9
2015-Jul-04 09:17N 40°30' E 014°44'1215.5
2015-Jul-04 08:32N 40°19' E 014°45'9315.4
2015-Jul-04 02:31N 38°52' E 015°26'1515.4
2015-Jul-04 01:33N 38°38' E 015°34'1515.3
2015-Jul-04 00:33N 38°23' E 015°40'1212.1
2015-Jul-03 23:33N 38°12' E 015°37'1515.3
2015-Jul-03 22:33N 37°57' E 015°31'19 1.5
2015-Jul-03 09:24N 37°41' E 015°18'1315.8
2015-Jul-03 08:33N 37°53' E 015°25'1615.7
2015-Jul-03 07:33N 38°07' E 015°33'1413.8
2015-Jul-03 06:34N 38°20' E 015°40'1615.6
2015-Jul-03 05:33N 38°34' E 015°33'1615.7
2015-Jul-03 04:33N 38°49' E 015°25'8215.5
2015-Jul-02 23:17N 40°06' E 014°49'1115.1
2015-Jul-02 22:33N 40°17' E 014°45'7 0.5
2015-Jul-02 10:06N 40°23' E 014°44'915.6
2015-Jul-02 09:33N 40°15' E 014°46'7915.4
2015-Jul-02 04:23N 39°00' E 015°22'1315.5
2015-Jul-02 03:32N 38°48' E 015°28'1515.6
2015-Jul-02 02:33N 38°34' E 015°35'1515.3
2015-Jul-02 01:33N 38°19' E 015°42'1313.2
2015-Jul-02 00:34N 38°07' E 015°36'1515.4
2015-Jul-01 23:33N 37°53' E 015°29'14 1.1
2015-Jul-01 11:24N 37°41' E 015°18'1315.5
2015-Jul-01 10:33N 37°53' E 015°26'1413.6
2015-Jul-01 09:33N 38°06' E 015°33'1414.1
2015-Jul-01 08:33N 38°19' E 015°40'1615.6
2015-Jul-01 07:31N 38°34' E 015°33'1615.4
2015-Jul-01 06:28N 38°49' E 015°26'9015.2
2015-Jul-01 00:33N 40°13' E 014°46'1715.0
2015-Jun-30 23:26N 40°30' E 014°44'6 0.6
2015-Jun-30 13:18N 40°24' E 014°45'1114.8
2015-Jun-30 12:33N 40°13' E 014°46'1615.0
2015-Jun-30 11:29N 39°58' E 014°53'6415.1
2015-Jun-30 07:14N 38°58' E 015°23'1015.0
2015-Jun-30 06:32N 38°48' E 015°28'1515.2
2015-Jun-30 05:33N 38°34' E 015°35'1515.1
2015-Jun-30 04:33N 38°20' E 015°41'1413.8
2015-Jun-30 03:33N 38°07' E 015°37'1514.9
2015-Jun-30 02:33N 37°53' E 015°29'75 6.2
2015-Jun-29 14:33N 36°40' E 015°13'2016.0
2015-Jun-29 13:19N 36°23' E 014°59'1215.3
2015-Jun-29 12:33N 36°14' E 014°51'1515.1
2015-Jun-29 11:33N 36°02' E 014°39'10 1.0
2015-Jun-29 01:05N 35°54' E 014°31'5 9.2
2015-Jun-29 00:34N 35°58' E 014°35'1413.6
2015-Jun-28 23:33N 36°09' E 014°45'1413.7
2015-Jun-28 22:34N 36°19' E 014°56'1313.5
2015-Jun-28 21:34N 36°30' E 015°06'1413.5
2015-Jun-28 20:33N 36°41' E 015°15'1413.7
2015-Jun-28 19:33N 36°54' E 015°23'1313.6
2015-Jun-28 18:33N 37°07' E 015°23'45 4.5
2015-Jun-28 08:32N 37°52' E 015°25'1515.5
2015-Jun-28 07:34N 38°06' E 015°33'1515.0
2015-Jun-28 06:33N 38°20' E 015°40'1616.1
2015-Jun-28 05:33N 38°35' E 015°33'1515.2
2015-Jun-28 04:33N 38°49' E 015°26'7015.6
2015-Jun-28 00:03N 39°55' E 014°54'1415.7
2015-Jun-27 23:11N 40°08' E 014°48'1115.3
2015-Jun-27 22:27N 40°18' E 014°44'  
Track history (hours):
 
Tides and Currents Weather Stations Pressure Air Temp Water Temp Dewpoint Dewpoint Depression Visibility Wind Speed Wind Dir Waves Ship Positions

Norse Mersey

Operator: Norse Merchant Ferries

Last reported at 2015-Jul-07 13:18 UTC. Time now 2015-Jul-07 22:00 UTC.
Position N 40°24' E 014°44'.

Length 175 m; draft 5.3 m.

Type: Passenger vessel. MMSI: 247026000.

Date/timePositionNaut miles runAvg speedWind from/ knotsBaromVisibWave heightAir tempDewpointWater temp
2015-Jul-07 13:18N 40°24' E 014°44'10615.2
2015-Jul-07 06:21N 38°45' E 015°29'1215.2
2015-Jul-07 05:33N 38°33' E 015°35'1515.0
2015-Jul-07 04:34N 38°19' E 015°42'1313.4
2015-Jul-07 03:33N 38°07' E 015°36'1514.9
2015-Jul-07 02:33N 37°53' E 015°29'47 4.9
2015-Jul-06 17:03N 37°07' E 015°24'815.4
2015-Jul-06 16:33N 36°59' E 015°25'1515.4
2015-Jul-06 15:33N 36°45' E 015°17'2315.9
2015-Jul-06 14:08N 36°26' E 015°01'915.6
2015-Jul-06 13:33N 36°19' E 014°55'1515.3
2015-Jul-06 12:33N 36°06' E 014°44'1515.1
2015-Jul-06 11:33N 35°54' E 014°32'2 0.3
2015-Jul-06 05:32N 35°53' E 014°31'0 0.0
2015-Jul-06 01:29N 35°53' E 014°31'7 7.1
2015-Jul-06 00:33N 35°58' E 014°36'1414.1
2015-Jul-05 23:34N 36°09' E 014°46'1414.0
2015-Jul-05 22:34N 36°21' E 014°57'1413.6
2015-Jul-05 21:33N 36°32' E 015°05'1413.4
2015-Jul-05 20:32N 36°43' E 015°16'1414.3
2015-Jul-05 19:33N 36°56' E 015°24'1413.8
2015-Jul-05 18:33N 37°09' E 015°23'1313.4
2015-Jul-05 17:33N 37°21' E 015°15'25 2.3
2015-Jul-05 06:33N 37°46' E 015°21'1515.1
2015-Jul-05 05:33N 37°60' E 015°30'1515.0
2015-Jul-05 04:34N 38°14' E 015°37'1313.1
2015-Jul-05 03:33N 38°27' E 015°36'1414.4
2015-Jul-05 02:33N 38°41' E 015°30'1614.9
2015-Jul-05 01:29N 38°56' E 015°23'9114.6
2015-Jul-04 19:17N 40°21' E 014°45'9 0.9
2015-Jul-04 09:17N 40°30' E 014°44'1215.5
2015-Jul-04 08:32N 40°19' E 014°45'9315.4
2015-Jul-04 02:31N 38°52' E 015°26'1515.4
2015-Jul-04 01:33N 38°38' E 015°34'1515.3
2015-Jul-04 00:33N 38°23' E 015°40'1212.1
2015-Jul-03 23:33N 38°12' E 015°37'1515.3
2015-Jul-03 22:33N 37°57' E 015°31'19 1.5
2015-Jul-03 09:24N 37°41' E 015°18'1315.8
2015-Jul-03 08:33N 37°53' E 015°25'1615.7
2015-Jul-03 07:33N 38°07' E 015°33'1413.8
2015-Jul-03 06:34N 38°20' E 015°40'1615.6
2015-Jul-03 05:33N 38°34' E 015°33'1615.7
2015-Jul-03 04:33N 38°49' E 015°25'8215.5
2015-Jul-02 23:17N 40°06' E 014°49'1115.1
2015-Jul-02 22:33N 40°17' E 014°45'7 0.5
2015-Jul-02 10:06N 40°23' E 014°44'915.6
2015-Jul-02 09:33N 40°15' E 014°46'7915.4
2015-Jul-02 04:23N 39°00' E 015°22'1315.5
2015-Jul-02 03:32N 38°48' E 015°28'1515.6
2015-Jul-02 02:33N 38°34' E 015°35'1515.3
2015-Jul-02 01:33N 38°19' E 015°42'1313.2
2015-Jul-02 00:34N 38°07' E 015°36'1515.4
2015-Jul-01 23:33N 37°53' E 015°29'14 1.1
2015-Jul-01 11:24N 37°41' E 015°18'1315.5
2015-Jul-01 10:33N 37°53' E 015°26'1413.6
2015-Jul-01 09:33N 38°06' E 015°33'1414.1
2015-Jul-01 08:33N 38°19' E 015°40'1615.6
2015-Jul-01 07:31N 38°34' E 015°33'1615.4
2015-Jul-01 06:28N 38°49' E 015°26'9015.2
2015-Jul-01 00:33N 40°13' E 014°46'1715.0
2015-Jun-30 23:26N 40°30' E 014°44'6 0.6
2015-Jun-30 13:18N 40°24' E 014°45'1114.8
2015-Jun-30 12:33N 40°13' E 014°46'1615.0
2015-Jun-30 11:29N 39°58' E 014°53'6415.1
2015-Jun-30 07:14N 38°58' E 015°23'1015.0
2015-Jun-30 06:32N 38°48' E 015°28'1515.2
2015-Jun-30 05:33N 38°34' E 015°35'1515.1
2015-Jun-30 04:33N 38°20' E 015°41'1413.8
2015-Jun-30 03:33N 38°07' E 015°37'1514.9
2015-Jun-30 02:33N 37°53' E 015°29'75 6.2
2015-Jun-29 14:33N 36°40' E 015°13'2016.0
2015-Jun-29 13:19N 36°23' E 014°59'1215.3
2015-Jun-29 12:33N 36°14' E 014°51'1515.1
2015-Jun-29 11:33N 36°02' E 014°39'10 1.0
2015-Jun-29 01:05N 35°54' E 014°31'5 9.2
2015-Jun-29 00:34N 35°58' E 014°35'1413.6
2015-Jun-28 23:33N 36°09' E 014°45'1413.7
2015-Jun-28 22:34N 36°19' E 014°56'1313.5
2015-Jun-28 21:34N 36°30' E 015°06'1413.5
2015-Jun-28 20:33N 36°41' E 015°15'1413.7
2015-Jun-28 19:33N 36°54' E 015°23'1313.6
2015-Jun-28 18:33N 37°07' E 015°23'45 4.5
2015-Jun-28 08:32N 37°52' E 015°25'1515.5
2015-Jun-28 07:34N 38°06' E 015°33'1515.0
2015-Jun-28 06:33N 38°20' E 015°40'1616.1
2015-Jun-28 05:33N 38°35' E 015°33'1515.2
2015-Jun-28 04:33N 38°49' E 015°26'7015.6
2015-Jun-28 00:03N 39°55' E 014°54'1415.7
2015-Jun-27 23:11N 40°08' E 014°48'1115.3
2015-Jun-27 22:27N 40°18' E 014°44'  

Dump ship's entire track history